sensor_id;sensor_type;location;lat;lon;timestamp;temperature;humidity
25320;DHT22;13256;49.012;8.610;2024-01-06T00:21:19;5.90;99.90
25320;DHT22;13256;49.012;8.610;2024-01-06T00:53:15;5.90;99.90
25320;DHT22;13256;49.012;8.610;2024-01-06T01:07:52;5.70;99.90
25320;DHT22;13256;49.012;8.610;2024-01-06T01:25:39;5.60;99.90
25320;DHT22;13256;49.012;8.610;2024-01-06T01:28:35;5.60;99.90
25320;DHT22;13256;49.012;8.610;2024-01-06T01:31:07;5.60;99.90
25320;DHT22;13256;49.012;8.610;2024-01-06T01:33:34;5.70;99.90
25320;DHT22;13256;49.012;8.610;2024-01-06T01:36:01;5.70;99.90
25320;DHT22;13256;49.012;8.610;2024-01-06T01:38:37;5.70;99.90
25320;DHT22;13256;49.012;8.610;2024-01-06T01:41:09;5.70;99.90
25320;DHT22;13256;49.012;8.610;2024-01-06T01:43:35;5.70;99.90
25320;DHT22;13256;49.012;8.610;2024-01-06T01:48:42;5.70;99.90
25320;DHT22;13256;49.012;8.610;2024-01-06T01:51:15;5.70;99.90
25320;DHT22;13256;49.012;8.610;2024-01-06T01:53:46;5.70;99.90
25320;DHT22;13256;49.012;8.610;2024-01-06T01:56:19;5.70;99.90
25320;DHT22;13256;49.012;8.610;2024-01-06T01:59:17;5.60;99.90
25320;DHT22;13256;49.012;8.610;2024-01-06T02:01:53;5.60;99.90
25320;DHT22;13256;49.012;8.610;2024-01-06T02:10:03;5.50;99.90
25320;DHT22;13256;49.012;8.610;2024-01-06T02:12:35;5.50;99.90
25320;DHT22;13256;49.012;8.610;2024-01-06T02:15:07;5.50;99.90
25320;DHT22;13256;49.012;8.610;2024-01-06T02:18:01;5.50;99.90
25320;DHT22;13256;49.012;8.610;2024-01-06T02:20:34;5.40;99.90
25320;DHT22;13256;49.012;8.610;2024-01-06T02:31:50;5.30;99.90
25320;DHT22;13256;49.012;8.610;2024-01-06T02:40:15;5.20;99.90
25320;DHT22;13256;49.012;8.610;2024-01-06T02:42:42;5.20;99.90
25320;DHT22;13256;49.012;8.610;2024-01-06T02:45:40;5.20;99.90
25320;DHT22;13256;49.012;8.610;2024-01-06T02:48:09;5.30;99.90
25320;DHT22;13256;49.012;8.610;2024-01-06T02:50:43;5.30;99.90
25320;DHT22;13256;49.012;8.610;2024-01-06T02:53:13;5.30;99.90
25320;DHT22;13256;49.012;8.610;2024-01-06T02:55:42;5.30;99.90
25320;DHT22;13256;49.012;8.610;2024-01-06T02:58:12;5.30;99.90
25320;DHT22;13256;49.012;8.610;2024-01-06T03:00:40;5.30;99.90
25320;DHT22;13256;49.012;8.610;2024-01-06T03:03:07;5.30;99.90
25320;DHT22;13256;49.012;8.610;2024-01-06T03:05:41;5.30;99.90
25320;DHT22;13256;49.012;8.610;2024-01-06T03:08:15;5.30;99.90
25320;DHT22;13256;49.012;8.610;2024-01-06T03:10:43;5.20;99.90
25320;DHT22;13256;49.012;8.610;2024-01-06T03:13:12;5.20;99.90
25320;DHT22;13256;49.012;8.610;2024-01-06T03:15:41;5.30;99.90
25320;DHT22;13256;49.012;8.610;2024-01-06T03:18:09;5.20;99.90
25320;DHT22;13256;49.012;8.610;2024-01-06T03:20:38;5.20;99.90
25320;DHT22;13256;49.012;8.610;2024-01-06T03:23:05;5.20;99.90
25320;DHT22;13256;49.012;8.610;2024-01-06T03:25:35;5.20;99.90
25320;DHT22;13256;49.012;8.610;2024-01-06T03:28:04;5.20;99.90
25320;DHT22;13256;49.012;8.610;2024-01-06T03:30:34;5.10;99.90
25320;DHT22;13256;49.012;8.610;2024-01-06T03:33:31;5.10;99.90
25320;DHT22;13256;49.012;8.610;2024-01-06T03:36:08;5.10;99.90
25320;DHT22;13256;49.012;8.610;2024-01-06T03:38:35;5.10;99.90
25320;DHT22;13256;49.012;8.610;2024-01-06T03:41:05;5.10;99.90
25320;DHT22;13256;49.012;8.610;2024-01-06T03:43:35;5.10;99.90
25320;DHT22;13256;49.012;8.610;2024-01-06T03:46:02;5.10;99.90
25320;DHT22;13256;49.012;8.610;2024-01-06T03:48:30;5.00;99.90
25320;DHT22;13256;49.012;8.610;2024-01-06T03:53:48;5.00;99.90
25320;DHT22;13256;49.012;8.610;2024-01-06T03:56:14;5.00;99.90
25320;DHT22;13256;49.012;8.610;2024-01-06T03:58:44;5.00;99.90
25320;DHT22;13256;49.012;8.610;2024-01-06T04:01:11;5.00;99.90
25320;DHT22;13256;49.012;8.610;2024-01-06T04:03:43;5.00;99.90
25320;DHT22;13256;49.012;8.610;2024-01-06T04:06:13;5.00;99.90
25320;DHT22;13256;49.012;8.610;2024-01-06T04:08:46;5.00;99.90
25320;DHT22;13256;49.012;8.610;2024-01-06T04:11:15;5.00;99.90
25320;DHT22;13256;49.012;8.610;2024-01-06T04:13:43;5.00;99.90
25320;DHT22;13256;49.012;8.610;2024-01-06T04:16:10;5.00;99.90
25320;DHT22;13256;49.012;8.610;2024-01-06T04:18:42;5.00;99.90
25320;DHT22;13256;49.012;8.610;2024-01-06T04:21:43;5.00;99.90
25320;DHT22;13256;49.012;8.610;2024-01-06T04:24:13;5.10;99.90
25320;DHT22;13256;49.012;8.610;2024-01-06T04:26:40;5.10;99.90
25320;DHT22;13256;49.012;8.610;2024-01-06T04:29:07;5.10;99.90
25320;DHT22;13256;49.012;8.610;2024-01-06T04:31:39;5.10;99.90
25320;DHT22;13256;49.012;8.610;2024-01-06T04:34:06;5.10;99.90
25320;DHT22;13256;49.012;8.610;2024-01-06T04:36:34;5.10;99.90
25320;DHT22;13256;49.012;8.610;2024-01-06T04:39:07;5.10;99.90
25320;DHT22;13256;49.012;8.610;2024-01-06T04:41:37;5.10;99.90
25320;DHT22;13256;49.012;8.610;2024-01-06T04:44:04;5.10;99.90
25320;DHT22;13256;49.012;8.610;2024-01-06T04:46:34;5.10;99.90
25320;DHT22;13256;49.012;8.610;2024-01-06T04:49:04;5.10;99.90
25320;DHT22;13256;49.012;8.610;2024-01-06T04:51:35;5.10;99.90
25320;DHT22;13256;49.012;8.610;2024-01-06T04:54:05;5.10;99.90
25320;DHT22;13256;49.012;8.610;2024-01-06T04:56:33;5.10;99.90
25320;DHT22;13256;49.012;8.610;2024-01-06T04:59:04;5.20;99.90
25320;DHT22;13256;49.012;8.610;2024-01-06T05:01:34;5.20;99.90
25320;DHT22;13256;49.012;8.610;2024-01-06T05:04:03;5.20;99.90
25320;DHT22;13256;49.012;8.610;2024-01-06T05:06:32;5.10;99.90
25320;DHT22;13256;49.012;8.610;2024-01-06T05:09:02;5.10;99.90
25320;DHT22;13256;49.012;8.610;2024-01-06T05:11:41;5.20;99.90
25320;DHT22;13256;49.012;8.610;2024-01-06T05:14:11;5.20;99.90
25320;DHT22;13256;49.012;8.610;2024-01-06T05:25:21;5.10;99.90
25320;DHT22;13256;49.012;8.610;2024-01-06T05:27:48;5.10;99.90
25320;DHT22;13256;49.012;8.610;2024-01-06T05:33:11;5.10;99.90
25320;DHT22;13256;49.012;8.610;2024-01-06T05:35:41;5.20;99.90
25320;DHT22;13256;49.012;8.610;2024-01-06T05:41:01;5.10;99.90
25320;DHT22;13256;49.012;8.610;2024-01-06T05:43:30;5.20;99.90
25320;DHT22;13256;49.012;8.610;2024-01-06T05:45:58;5.10;99.90
25320;DHT22;13256;49.012;8.610;2024-01-06T05:48:27;5.20;99.90
25320;DHT22;13256;49.012;8.610;2024-01-06T05:50:57;5.20;99.90
25320;DHT22;13256;49.012;8.610;2024-01-06T05:53:24;5.20;99.90
25320;DHT22;13256;49.012;8.610;2024-01-06T05:55:51;5.20;99.90
25320;DHT22;13256;49.012;8.610;2024-01-06T05:58:18;5.20;99.90
25320;DHT22;13256;49.012;8.610;2024-01-06T06:00:45;5.20;99.90
25320;DHT22;13256;49.012;8.610;2024-01-06T06:03:13;5.20;99.90
25320;DHT22;13256;49.012;8.610;2024-01-06T06:05:42;5.20;99.90
25320;DHT22;13256;49.012;8.610;2024-01-06T06:08:10;5.20;99.90
25320;DHT22;13256;49.012;8.610;2024-01-06T06:10:39;5.20;99.90
25320;DHT22;13256;49.012;8.610;2024-01-06T06:13:28;5.20;99.90
25320;DHT22;13256;49.012;8.610;2024-01-06T06:21:46;5.30;99.90
25320;DHT22;13256;49.012;8.610;2024-01-06T06:24:14;5.30;99.90
25320;DHT22;13256;49.012;8.610;2024-01-06T06:26:43;5.30;99.90
25320;DHT22;13256;49.012;8.610;2024-01-06T06:29:11;5.30;99.90
25320;DHT22;13256;49.012;8.610;2024-01-06T06:31:38;5.30;99.90
25320;DHT22;13256;49.012;8.610;2024-01-06T06:34:05;5.30;99.90
25320;DHT22;13256;49.012;8.610;2024-01-06T06:36:36;5.30;99.90
25320;DHT22;13256;49.012;8.610;2024-01-06T06:39:05;5.30;99.90
25320;DHT22;13256;49.012;8.610;2024-01-06T06:41:32;5.30;99.90
25320;DHT22;13256;49.012;8.610;2024-01-06T06:44:02;5.40;99.90
25320;DHT22;13256;49.012;8.610;2024-01-06T06:46:29;5.30;99.90
25320;DHT22;13256;49.012;8.610;2024-01-06T06:48:56;5.40;99.90
25320;DHT22;13256;49.012;8.610;2024-01-06T06:57:18;5.50;99.90
25320;DHT22;13256;49.012;8.610;2024-01-06T06:59:49;5.50;99.90
25320;DHT22;13256;49.012;8.610;2024-01-06T07:02:16;5.50;99.90
25320;DHT22;13256;49.012;8.610;2024-01-06T07:04:47;5.50;99.90
25320;DHT22;13256;49.012;8.610;2024-01-06T07:07:14;5.50;99.90
25320;DHT22;13256;49.012;8.610;2024-01-06T07:09:49;5.60;99.90
25320;DHT22;13256;49.012;8.610;2024-01-06T07:26:45;5.60;99.90
25320;DHT22;13256;49.012;8.610;2024-01-06T07:29:12;5.60;99.90
25320;DHT22;13256;49.012;8.610;2024-01-06T07:31:42;5.50;99.90
25320;DHT22;13256;49.012;8.610;2024-01-06T07:34:11;5.50;99.90
25320;DHT22;13256;49.012;8.610;2024-01-06T07:36:41;5.60;99.90
25320;DHT22;13256;49.012;8.610;2024-01-06T07:39:16;5.50;99.90
25320;DHT22;13256;49.012;8.610;2024-01-06T07:42:09;5.50;99.90
25320;DHT22;13256;49.012;8.610;2024-01-06T07:44:36;5.50;99.90
25320;DHT22;13256;49.012;8.610;2024-01-06T07:47:03;5.50;99.90
25320;DHT22;13256;49.012;8.610;2024-01-06T07:49:37;5.50;99.90
25320;DHT22;13256;49.012;8.610;2024-01-06T07:52:07;5.50;99.90
25320;DHT22;13256;49.012;8.610;2024-01-06T07:54:39;5.50;99.90
25320;DHT22;13256;49.012;8.610;2024-01-06T07:57:10;5.50;99.90
25320;DHT22;13256;49.012;8.610;2024-01-06T07:59:42;5.50;99.90
25320;DHT22;13256;49.012;8.610;2024-01-06T08:02:12;5.50;99.90
25320;DHT22;13256;49.012;8.610;2024-01-06T08:04:45;5.50;99.90
25320;DHT22;13256;49.012;8.610;2024-01-06T08:07:53;5.50;99.90
25320;DHT22;13256;49.012;8.610;2024-01-06T08:10:25;5.50;99.90
25320;DHT22;13256;49.012;8.610;2024-01-06T08:12:52;5.50;99.90
25320;DHT22;13256;49.012;8.610;2024-01-06T08:15:21;5.50;99.90
25320;DHT22;13256;49.012;8.610;2024-01-06T08:17:50;5.50;99.90
25320;DHT22;13256;49.012;8.610;2024-01-06T08:20:20;5.50;99.90
25320;DHT22;13256;49.012;8.610;2024-01-06T08:22:57;5.50;99.90
25320;DHT22;13256;49.012;8.610;2024-01-06T08:25:27;5.50;99.90
25320;DHT22;13256;49.012;8.610;2024-01-06T08:27:56;5.50;99.90
25320;DHT22;13256;49.012;8.610;2024-01-06T08:30:31;5.50;99.90
25320;DHT22;13256;49.012;8.610;2024-01-06T08:33:06;5.60;99.90
25320;DHT22;13256;49.012;8.610;2024-01-06T08:35:39;5.60;99.90
25320;DHT22;13256;49.012;8.610;2024-01-06T08:38:14;5.60;99.90
25320;DHT22;13256;49.012;8.610;2024-01-06T08:40:48;5.60;99.90
25320;DHT22;13256;49.012;8.610;2024-01-06T08:43:21;5.60;99.90
25320;DHT22;13256;49.012;8.610;2024-01-06T08:45:49;5.60;99.90
25320;DHT22;13256;49.012;8.610;2024-01-06T08:48:19;5.60;99.90
25320;DHT22;13256;49.012;8.610;2024-01-06T08:50:49;5.60;99.90
25320;DHT22;13256;49.012;8.610;2024-01-06T08:53:17;5.60;99.90
25320;DHT22;13256;49.012;8.610;2024-01-06T08:55:47;5.70;99.90
25320;DHT22;13256;49.012;8.610;2024-01-06T08:58:17;5.60;99.90
25320;DHT22;13256;49.012;8.610;2024-01-06T09:00:44;5.70;99.90
25320;DHT22;13256;49.012;8.610;2024-01-06T09:03:11;5.70;99.90
25320;DHT22;13256;49.012;8.610;2024-01-06T09:05:42;5.70;99.90
25320;DHT22;13256;49.012;8.610;2024-01-06T09:08:13;5.70;99.90
25320;DHT22;13256;49.012;8.610;2024-01-06T09:10:43;5.70;99.90
25320;DHT22;13256;49.012;8.610;2024-01-06T09:13:10;5.70;99.90
25320;DHT22;13256;49.012;8.610;2024-01-06T09:15:38;5.70;99.90
25320;DHT22;13256;49.012;8.610;2024-01-06T09:18:05;5.70;99.90
25320;DHT22;13256;49.012;8.610;2024-01-06T09:20:32;5.70;99.90
25320;DHT22;13256;49.012;8.610;2024-01-06T09:22:59;5.80;99.90
25320;DHT22;13256;49.012;8.610;2024-01-06T09:25:29;5.70;99.90
25320;DHT22;13256;49.012;8.610;2024-01-06T09:27:59;5.70;99.90
25320;DHT22;13256;49.012;8.610;2024-01-06T09:30:26;5.70;99.90
25320;DHT22;13256;49.012;8.610;2024-01-06T09:32:55;5.70;99.90
25320;DHT22;13256;49.012;8.610;2024-01-06T09:35:23;5.70;99.90
25320;DHT22;13256;49.012;8.610;2024-01-06T09:37:51;5.70;99.90
25320;DHT22;13256;49.012;8.610;2024-01-06T09:40:23;5.70;99.90
25320;DHT22;13256;49.012;8.610;2024-01-06T09:42:56;5.80;99.90
25320;DHT22;13256;49.012;8.610;2024-01-06T09:45:28;5.80;99.90
25320;DHT22;13256;49.012;8.610;2024-01-06T09:47:55;5.80;99.90
25320;DHT22;13256;49.012;8.610;2024-01-06T09:50:56;5.80;99.90
25320;DHT22;13256;49.012;8.610;2024-01-06T09:53:31;5.80;99.90
25320;DHT22;13256;49.012;8.610;2024-01-06T09:56:06;5.80;99.90
25320;DHT22;13256;49.012;8.610;2024-01-06T09:58:38;5.90;99.90
25320;DHT22;13256;49.012;8.610;2024-01-06T10:01:11;5.90;99.90
25320;DHT22;13256;49.012;8.610;2024-01-06T10:03:38;5.80;99.90
25320;DHT22;13256;49.012;8.610;2024-01-06T10:06:09;5.90;99.90
25320;DHT22;13256;49.012;8.610;2024-01-06T10:08:39;5.90;99.90
25320;DHT22;13256;49.012;8.610;2024-01-06T10:11:13;5.90;99.90
25320;DHT22;13256;49.012;8.610;2024-01-06T10:13:41;5.90;99.90
25320;DHT22;13256;49.012;8.610;2024-01-06T10:16:13;5.90;99.90
25320;DHT22;13256;49.012;8.610;2024-01-06T10:18:46;5.90;99.90
25320;DHT22;13256;49.012;8.610;2024-01-06T10:21:25;5.90;99.90
25320;DHT22;13256;49.012;8.610;2024-01-06T10:23:54;5.90;99.90
25320;DHT22;13256;49.012;8.610;2024-01-06T10:26:23;5.90;99.90
25320;DHT22;13256;49.012;8.610;2024-01-06T10:28:51;6.00;99.90
25320;DHT22;13256;49.012;8.610;2024-01-06T10:31:22;5.90;99.90
25320;DHT22;13256;49.012;8.610;2024-01-06T10:33:52;5.90;99.90
25320;DHT22;13256;49.012;8.610;2024-01-06T10:36:22;5.90;99.90
25320;DHT22;13256;49.012;8.610;2024-01-06T10:38:49;5.90;99.90
25320;DHT22;13256;49.012;8.610;2024-01-06T10:41:19;5.90;99.90
25320;DHT22;13256;49.012;8.610;2024-01-06T10:43:51;5.90;99.90
25320;DHT22;13256;49.012;8.610;2024-01-06T10:46:19;6.00;99.90
25320;DHT22;13256;49.012;8.610;2024-01-06T10:48:50;5.90;99.90
25320;DHT22;13256;49.012;8.610;2024-01-06T10:51:23;5.90;99.90
25320;DHT22;13256;49.012;8.610;2024-01-06T10:53:52;6.00;99.90
25320;DHT22;13256;49.012;8.610;2024-01-06T10:56:23;6.00;99.90
25320;DHT22;13256;49.012;8.610;2024-01-06T10:59:04;6.00;99.90
25320;DHT22;13256;49.012;8.610;2024-01-06T11:01:35;6.00;99.90
25320;DHT22;13256;49.012;8.610;2024-01-06T11:04:03;6.00;99.90
25320;DHT22;13256;49.012;8.610;2024-01-06T11:06:35;6.00;99.90
25320;DHT22;13256;49.012;8.610;2024-01-06T11:09:19;6.00;99.90
25320;DHT22;13256;49.012;8.610;2024-01-06T11:11:48;6.10;99.90
25320;DHT22;13256;49.012;8.610;2024-01-06T11:14:26;6.10;99.90
25320;DHT22;13256;49.012;8.610;2024-01-06T11:16:55;6.10;99.90
25320;DHT22;13256;49.012;8.610;2024-01-06T11:22:26;6.20;99.90
25320;DHT22;13256;49.012;8.610;2024-01-06T11:25:06;6.20;99.90
25320;DHT22;13256;49.012;8.610;2024-01-06T11:27:34;6.30;99.90
25320;DHT22;13256;49.012;8.610;2024-01-06T11:30:04;6.30;99.90
25320;DHT22;13256;49.012;8.610;2024-01-06T11:32:40;6.20;99.90
25320;DHT22;13256;49.012;8.610;2024-01-06T11:35:11;6.20;99.90
25320;DHT22;13256;49.012;8.610;2024-01-06T11:43:10;6.20;99.90
25320;DHT22;13256;49.012;8.610;2024-01-06T11:45:43;6.20;99.90
25320;DHT22;13256;49.012;8.610;2024-01-06T11:48:11;6.20;99.90
25320;DHT22;13256;49.012;8.610;2024-01-06T11:50:40;6.20;99.90
25320;DHT22;13256;49.012;8.610;2024-01-06T11:53:09;6.10;99.90
25320;DHT22;13256;49.012;8.610;2024-01-06T11:55:44;6.10;99.90
25320;DHT22;13256;49.012;8.610;2024-01-06T11:58:11;6.10;99.90
25320;DHT22;13256;49.012;8.610;2024-01-06T12:00:39;6.10;99.90
25320;DHT22;13256;49.012;8.610;2024-01-06T12:03:15;6.00;99.90
25320;DHT22;13256;49.012;8.610;2024-01-06T12:05:42;6.00;99.90
25320;DHT22;13256;49.012;8.610;2024-01-06T12:08:09;6.10;99.90
25320;DHT22;13256;49.012;8.610;2024-01-06T12:10:40;6.10;99.90
25320;DHT22;13256;49.012;8.610;2024-01-06T12:13:11;6.10;99.90
25320;DHT22;13256;49.012;8.610;2024-01-06T12:15:41;6.10;99.90
25320;DHT22;13256;49.012;8.610;2024-01-06T12:18:34;6.10;99.90
25320;DHT22;13256;49.012;8.610;2024-01-06T12:21:02;6.10;99.90
25320;DHT22;13256;49.012;8.610;2024-01-06T12:23:30;6.10;99.90
25320;DHT22;13256;49.012;8.610;2024-01-06T12:26:01;6.10;99.90
25320;DHT22;13256;49.012;8.610;2024-01-06T12:28:31;6.10;99.90
25320;DHT22;13256;49.012;8.610;2024-01-06T12:31:04;6.10;99.90
25320;DHT22;13256;49.012;8.610;2024-01-06T12:33:38;6.10;99.90
25320;DHT22;13256;49.012;8.610;2024-01-06T12:36:07;6.10;99.90
25320;DHT22;13256;49.012;8.610;2024-01-06T12:38:47;6.10;99.90
25320;DHT22;13256;49.012;8.610;2024-01-06T12:41:17;6.10;99.90
25320;DHT22;13256;49.012;8.610;2024-01-06T12:46:23;6.20;99.90
25320;DHT22;13256;49.012;8.610;2024-01-06T12:51:49;6.20;99.90
25320;DHT22;13256;49.012;8.610;2024-01-06T12:57:12;6.20;99.90
25320;DHT22;13256;49.012;8.610;2024-01-06T12:59:43;6.20;99.90
25320;DHT22;13256;49.012;8.610;2024-01-06T13:02:10;6.20;99.90
25320;DHT22;13256;49.012;8.610;2024-01-06T13:04:39;6.20;99.90
25320;DHT22;13256;49.012;8.610;2024-01-06T13:07:13;6.20;99.90
25320;DHT22;13256;49.012;8.610;2024-01-06T13:09:53;6.20;99.90
25320;DHT22;13256;49.012;8.610;2024-01-06T13:12:23;6.20;99.90
25320;DHT22;13256;49.012;8.610;2024-01-06T13:14:52;6.20;99.90
25320;DHT22;13256;49.012;8.610;2024-01-06T13:17:18;6.30;99.90
25320;DHT22;13256;49.012;8.610;2024-01-06T13:25:30;6.30;99.90
25320;DHT22;13256;49.012;8.610;2024-01-06T13:27:58;6.30;99.90
25320;DHT22;13256;49.012;8.610;2024-01-06T13:42:22;6.30;99.90
25320;DHT22;13256;49.012;8.610;2024-01-06T13:44:53;6.40;99.90
25320;DHT22;13256;49.012;8.610;2024-01-06T13:59:25;6.40;99.90
25320;DHT22;13256;49.012;8.610;2024-01-06T14:01:55;6.40;99.90
25320;DHT22;13256;49.012;8.610;2024-01-06T14:04:28;6.40;99.90
25320;DHT22;13256;49.012;8.610;2024-01-06T14:07:26;6.40;99.90
25320;DHT22;13256;49.012;8.610;2024-01-06T14:09:58;6.40;99.90
25320;DHT22;13256;49.012;8.610;2024-01-06T14:12:25;6.40;99.90
25320;DHT22;13256;49.012;8.610;2024-01-06T14:14:53;6.30;99.90
25320;DHT22;13256;49.012;8.610;2024-01-06T14:17:23;6.30;99.90
25320;DHT22;13256;49.012;8.610;2024-01-06T14:19:51;6.30;99.90
25320;DHT22;13256;49.012;8.610;2024-01-06T14:22:20;6.30;99.90
25320;DHT22;13256;49.012;8.610;2024-01-06T14:24:54;6.30;99.90
25320;DHT22;13256;49.012;8.610;2024-01-06T14:27:29;6.30;99.90
25320;DHT22;13256;49.012;8.610;2024-01-06T14:29:57;6.20;99.90
25320;DHT22;13256;49.012;8.610;2024-01-06T14:32:28;6.20;99.90
25320;DHT22;13256;49.012;8.610;2024-01-06T14:35:06;6.20;99.90
25320;DHT22;13256;49.012;8.610;2024-01-06T14:38:06;6.20;99.90
25320;DHT22;13256;49.012;8.610;2024-01-06T14:40:38;6.20;99.90
25320;DHT22;13256;49.012;8.610;2024-01-06T14:43:42;6.20;99.90
25320;DHT22;13256;49.012;8.610;2024-01-06T14:46:17;6.20;99.90
25320;DHT22;13256;49.012;8.610;2024-01-06T14:48:52;6.10;99.90
25320;DHT22;13256;49.012;8.610;2024-01-06T14:57:28;6.10;99.90
25320;DHT22;13256;49.012;8.610;2024-01-06T15:00:00;6.20;99.90
25320;DHT22;13256;49.012;8.610;2024-01-06T15:02:30;6.20;99.90
25320;DHT22;13256;49.012;8.610;2024-01-06T15:05:03;6.20;99.90
25320;DHT22;13256;49.012;8.610;2024-01-06T15:07:38;6.30;99.90
25320;DHT22;13256;49.012;8.610;2024-01-06T15:10:10;6.30;99.90
25320;DHT22;13256;49.012;8.610;2024-01-06T15:12:41;6.30;99.90
25320;DHT22;13256;49.012;8.610;2024-01-06T15:15:18;6.20;99.90
25320;DHT22;13256;49.012;8.610;2024-01-06T15:17:46;6.30;99.90
25320;DHT22;13256;49.012;8.610;2024-01-06T15:29:35;6.30;99.90
25320;DHT22;13256;49.012;8.610;2024-01-06T15:32:19;6.20;99.90
25320;DHT22;13256;49.012;8.610;2024-01-06T15:34:54;6.20;99.90
25320;DHT22;13256;49.012;8.610;2024-01-06T15:37:30;6.20;99.90
25320;DHT22;13256;49.012;8.610;2024-01-06T15:40:04;6.20;99.90
25320;DHT22;13256;49.012;8.610;2024-01-06T15:42:35;6.10;99.90
25320;DHT22;13256;49.012;8.610;2024-01-06T15:45:08;6.10;99.90
25320;DHT22;13256;49.012;8.610;2024-01-06T15:47:40;6.10;99.90
25320;DHT22;13256;49.012;8.610;2024-01-06T15:50:13;6.10;99.90
25320;DHT22;13256;49.012;8.610;2024-01-06T15:52:41;6.10;99.90
25320;DHT22;13256;49.012;8.610;2024-01-06T15:55:15;6.10;99.90
25320;DHT22;13256;49.012;8.610;2024-01-06T15:57:46;6.10;99.90
25320;DHT22;13256;49.012;8.610;2024-01-06T16:00:17;6.10;99.90
25320;DHT22;13256;49.012;8.610;2024-01-06T16:02:52;6.10;99.90
25320;DHT22;13256;49.012;8.610;2024-01-06T16:05:28;6.10;99.90
25320;DHT22;13256;49.012;8.610;2024-01-06T16:07:55;6.10;99.90
25320;DHT22;13256;49.012;8.610;2024-01-06T16:10:31;6.10;99.90
25320;DHT22;13256;49.012;8.610;2024-01-06T16:13:03;6.10;99.90
25320;DHT22;13256;49.012;8.610;2024-01-06T16:16:00;6.10;99.90
25320;DHT22;13256;49.012;8.610;2024-01-06T16:18:28;6.10;99.90
25320;DHT22;13256;49.012;8.610;2024-01-06T16:21:01;6.10;99.90
25320;DHT22;13256;49.012;8.610;2024-01-06T16:23:37;6.00;99.90
25320;DHT22;13256;49.012;8.610;2024-01-06T16:26:04;6.00;99.90
25320;DHT22;13256;49.012;8.610;2024-01-06T16:28:34;6.00;99.90
25320;DHT22;13256;49.012;8.610;2024-01-06T16:31:05;6.00;99.90
25320;DHT22;13256;49.012;8.610;2024-01-06T16:33:36;6.00;99.90
25320;DHT22;13256;49.012;8.610;2024-01-06T16:36:09;6.00;99.90
25320;DHT22;13256;49.012;8.610;2024-01-06T16:38:43;6.00;99.90
25320;DHT22;13256;49.012;8.610;2024-01-06T16:41:12;6.00;99.90
25320;DHT22;13256;49.012;8.610;2024-01-06T16:43:42;6.00;99.90
25320;DHT22;13256;49.012;8.610;2024-01-06T16:46:15;6.00;99.90
25320;DHT22;13256;49.012;8.610;2024-01-06T16:48:44;6.10;99.90
25320;DHT22;13256;49.012;8.610;2024-01-06T16:51:18;6.10;99.90
25320;DHT22;13256;49.012;8.610;2024-01-06T16:53:49;6.10;99.90
25320;DHT22;13256;49.012;8.610;2024-01-06T16:56:16;6.10;99.90
25320;DHT22;13256;49.012;8.610;2024-01-06T16:59:10;6.10;99.90
25320;DHT22;13256;49.012;8.610;2024-01-06T17:01:40;6.20;99.90
25320;DHT22;13256;49.012;8.610;2024-01-06T17:04:08;6.10;99.90
25320;DHT22;13256;49.012;8.610;2024-01-06T17:06:36;6.20;99.90
25320;DHT22;13256;49.012;8.610;2024-01-06T17:09:03;6.20;99.90
25320;DHT22;13256;49.012;8.610;2024-01-06T17:11:38;6.10;99.90
25320;DHT22;13256;49.012;8.610;2024-01-06T17:14:08;6.10;99.90
25320;DHT22;13256;49.012;8.610;2024-01-06T17:16:37;6.10;99.90
25320;DHT22;13256;49.012;8.610;2024-01-06T17:19:04;6.20;99.90
25320;DHT22;13256;49.012;8.610;2024-01-06T17:21:35;6.20;99.90
25320;DHT22;13256;49.012;8.610;2024-01-06T17:24:04;6.20;99.90
25320;DHT22;13256;49.012;8.610;2024-01-06T17:26:31;6.20;99.90
25320;DHT22;13256;49.012;8.610;2024-01-06T17:29:02;6.20;99.90
25320;DHT22;13256;49.012;8.610;2024-01-06T17:31:32;6.20;99.90
25320;DHT22;13256;49.012;8.610;2024-01-06T17:34:05;6.20;99.90
25320;DHT22;13256;49.012;8.610;2024-01-06T17:36:50;6.20;99.90
25320;DHT22;13256;49.012;8.610;2024-01-06T17:39:21;6.20;99.90
25320;DHT22;13256;49.012;8.610;2024-01-06T17:41:54;6.30;99.90
25320;DHT22;13256;49.012;8.610;2024-01-06T17:44:31;6.30;99.90
25320;DHT22;13256;49.012;8.610;2024-01-06T17:47:06;6.20;99.90
25320;DHT22;13256;49.012;8.610;2024-01-06T17:49:38;6.20;99.90
25320;DHT22;13256;49.012;8.610;2024-01-06T17:52:05;6.20;99.90
25320;DHT22;13256;49.012;8.610;2024-01-06T17:54:38;6.20;99.90
25320;DHT22;13256;49.012;8.610;2024-01-06T17:57:06;6.30;99.90
25320;DHT22;13256;49.012;8.610;2024-01-06T18:00:02;6.30;99.90
25320;DHT22;13256;49.012;8.610;2024-01-06T18:02:35;6.30;99.90
25320;DHT22;13256;49.012;8.610;2024-01-06T18:05:07;6.30;99.90
25320;DHT22;13256;49.012;8.610;2024-01-06T18:07:35;6.30;99.90
25320;DHT22;13256;49.012;8.610;2024-01-06T18:10:06;6.30;99.90
25320;DHT22;13256;49.012;8.610;2024-01-06T18:12:37;6.30;99.90
25320;DHT22;13256;49.012;8.610;2024-01-06T18:15:13;6.30;99.90
25320;DHT22;13256;49.012;8.610;2024-01-06T18:17:41;6.30;99.90
25320;DHT22;13256;49.012;8.610;2024-01-06T18:20:31;6.30;99.90
25320;DHT22;13256;49.012;8.610;2024-01-06T18:23:06;6.30;99.90
25320;DHT22;13256;49.012;8.610;2024-01-06T18:25:33;6.30;99.90
25320;DHT22;13256;49.012;8.610;2024-01-06T18:28:00;6.30;99.90
25320;DHT22;13256;49.012;8.610;2024-01-06T18:30:35;6.30;99.90
25320;DHT22;13256;49.012;8.610;2024-01-06T18:33:05;6.30;99.90
25320;DHT22;13256;49.012;8.610;2024-01-06T18:35:36;6.30;99.90
25320;DHT22;13256;49.012;8.610;2024-01-06T18:38:09;6.20;99.90
25320;DHT22;13256;49.012;8.610;2024-01-06T18:43:33;6.20;99.90
25320;DHT22;13256;49.012;8.610;2024-01-06T18:46:06;6.20;99.90
25320;DHT22;13256;49.012;8.610;2024-01-06T18:48:36;6.20;99.90
25320;DHT22;13256;49.012;8.610;2024-01-06T18:51:06;6.30;99.90
25320;DHT22;13256;49.012;8.610;2024-01-06T18:53:35;6.20;99.90
25320;DHT22;13256;49.012;8.610;2024-01-06T18:56:07;6.20;99.90
25320;DHT22;13256;49.012;8.610;2024-01-06T18:59:00;6.20;99.90
25320;DHT22;13256;49.012;8.610;2024-01-06T19:01:38;6.30;99.90
25320;DHT22;13256;49.012;8.610;2024-01-06T19:13:22;6.30;99.90
25320;DHT22;13256;49.012;8.610;2024-01-06T19:15:49;6.30;99.90
25320;DHT22;13256;49.012;8.610;2024-01-06T19:18:23;6.30;99.90
25320;DHT22;13256;49.012;8.610;2024-01-06T19:20:54;6.30;99.90
25320;DHT22;13256;49.012;8.610;2024-01-06T19:23:24;6.30;99.90
25320;DHT22;13256;49.012;8.610;2024-01-06T19:25:56;6.30;99.90
25320;DHT22;13256;49.012;8.610;2024-01-06T19:28:23;6.30;99.90
25320;DHT22;13256;49.012;8.610;2024-01-06T19:30:54;6.30;99.90
25320;DHT22;13256;49.012;8.610;2024-01-06T19:33:23;6.30;99.90
25320;DHT22;13256;49.012;8.610;2024-01-06T19:35:54;6.30;99.90
25320;DHT22;13256;49.012;8.610;2024-01-06T19:38:23;6.30;99.90
25320;DHT22;13256;49.012;8.610;2024-01-06T19:40:53;6.30;99.90
25320;DHT22;13256;49.012;8.610;2024-01-06T19:43:20;6.30;99.90
25320;DHT22;13256;49.012;8.610;2024-01-06T19:46:01;6.20;99.90
25320;DHT22;13256;49.012;8.610;2024-01-06T19:48:38;6.30;99.90
25320;DHT22;13256;49.012;8.610;2024-01-06T19:51:08;6.20;99.90